sensor_id;sensor_type;location;lat;lon;timestamp;P1;durP1;ratioP1;P2;durP2;ratioP2
44272;SDS011;29964;17.182;-96.766;2023-03-21T00:02:11;2.83;;;1.07;;
44272;SDS011;29964;17.182;-96.766;2023-03-21T00:04:37;0.97;;;0.70;;
44272;SDS011;29964;17.182;-96.766;2023-03-21T00:07:04;0.83;;;0.50;;
44272;SDS011;29964;17.182;-96.766;2023-03-21T00:09:31;1.13;;;0.73;;
44272;SDS011;29964;17.182;-96.766;2023-03-21T00:11:58;2.33;;;1.03;;
44272;SDS011;29964;17.182;-96.766;2023-03-21T00:14:26;1.17;;;0.83;;
44272;SDS011;29964;17.182;-96.766;2023-03-21T00:16:55;1.80;;;0.90;;
44272;SDS011;29964;17.182;-96.766;2023-03-21T00:19:22;1.07;;;0.80;;
44272;SDS011;29964;17.182;-96.766;2023-03-21T00:21:51;4.93;;;0.93;;
44272;SDS011;29964;17.182;-96.766;2023-03-21T00:24:20;0.73;;;0.50;;
44272;SDS011;29964;17.182;-96.766;2023-03-21T00:26:47;0.83;;;0.70;;
44272;SDS011;29964;17.182;-96.766;2023-03-21T00:29:14;1.00;;;0.60;;
44272;SDS011;29964;17.182;-96.766;2023-03-21T00:31:41;0.40;;;0.27;;
44272;SDS011;29964;17.182;-96.766;2023-03-21T00:34:08;0.97;;;0.50;;
44272;SDS011;29964;17.182;-96.766;2023-03-21T00:36:35;0.60;;;0.50;;
44272;SDS011;29964;17.182;-96.766;2023-03-21T00:39:02;0.83;;;0.50;;
44272;SDS011;29964;17.182;-96.766;2023-03-21T00:41:30;1.23;;;0.67;;
44272;SDS011;29964;17.182;-96.766;2023-03-21T00:43:57;1.13;;;0.47;;
44272;SDS011;29964;17.182;-96.766;2023-03-21T00:46:24;0.80;;;0.70;;
44272;SDS011;29964;17.182;-96.766;2023-03-21T00:48:50;1.53;;;0.43;;
44272;SDS011;29964;17.182;-96.766;2023-03-21T00:51:20;0.57;;;0.40;;
44272;SDS011;29964;17.182;-96.766;2023-03-21T00:53:57;0.57;;;0.40;;
44272;SDS011;29964;17.182;-96.766;2023-03-21T00:56:23;0.50;;;0.40;;
44272;SDS011;29964;17.182;-96.766;2023-03-21T00:58:50;0.50;;;0.40;;
44272;SDS011;29964;17.182;-96.766;2023-03-21T01:01:17;2.43;;;0.77;;
44272;SDS011;29964;17.182;-96.766;2023-03-21T01:03:44;1.07;;;0.70;;
44272;SDS011;29964;17.182;-96.766;2023-03-21T01:06:15;1.40;;;0.67;;
44272;SDS011;29964;17.182;-96.766;2023-03-21T01:08:44;0.90;;;0.63;;
44272;SDS011;29964;17.182;-96.766;2023-03-21T01:11:12;1.23;;;0.70;;
44272;SDS011;29964;17.182;-96.766;2023-03-21T01:13:40;0.77;;;0.60;;
44272;SDS011;29964;17.182;-96.766;2023-03-21T01:16:09;1.30;;;0.77;;
44272;SDS011;29964;17.182;-96.766;2023-03-21T01:18:36;0.40;;;0.23;;
44272;SDS011;29964;17.182;-96.766;2023-03-21T01:21:05;0.40;;;0.30;;
44272;SDS011;29964;17.182;-96.766;2023-03-21T01:23:32;0.30;;;0.30;;
44272;SDS011;29964;17.182;-96.766;2023-03-21T01:25:58;0.83;;;0.47;;
44272;SDS011;29964;17.182;-96.766;2023-03-21T01:28:26;1.93;;;0.70;;
44272;SDS011;29964;17.182;-96.766;2023-03-21T01:30:53;0.70;;;0.50;;
44272;SDS011;29964;17.182;-96.766;2023-03-21T01:33:20;0.40;;;0.40;;
44272;SDS011;29964;17.182;-96.766;2023-03-21T01:35:47;1.03;;;0.40;;
44272;SDS011;29964;17.182;-96.766;2023-03-21T01:38:14;0.43;;;0.37;;
44272;SDS011;29964;17.182;-96.766;2023-03-21T01:40:42;0.33;;;0.27;;
44272;SDS011;29964;17.182;-96.766;2023-03-21T01:43:26;0.40;;;0.30;;
44272;SDS011;29964;17.182;-96.766;2023-03-21T01:48:31;0.57;;;0.50;;
44272;SDS011;29964;17.182;-96.766;2023-03-21T01:50:59;1.50;;;0.57;;
44272;SDS011;29964;17.182;-96.766;2023-03-21T01:53:26;0.83;;;0.43;;
44272;SDS011;29964;17.182;-96.766;2023-03-21T01:55:56;0.67;;;0.53;;
44272;SDS011;29964;17.182;-96.766;2023-03-21T01:58:23;1.23;;;0.87;;
44272;SDS011;29964;17.182;-96.766;2023-03-21T02:00:50;1.40;;;1.13;;
44272;SDS011;29964;17.182;-96.766;2023-03-21T02:03:18;4.23;;;1.40;;
44272;SDS011;29964;17.182;-96.766;2023-03-21T02:05:50;1.90;;;1.10;;
44272;SDS011;29964;17.182;-96.766;2023-03-21T02:08:17;0.90;;;0.60;;
44272;SDS011;29964;17.182;-96.766;2023-03-21T02:10:45;1.23;;;0.77;;
44272;SDS011;29964;17.182;-96.766;2023-03-21T02:13:14;0.70;;;0.43;;
44272;SDS011;29964;17.182;-96.766;2023-03-21T02:15:41;1.20;;;0.70;;
44272;SDS011;29964;17.182;-96.766;2023-03-21T02:23:36;0.77;;;0.40;;
44272;SDS011;29964;17.182;-96.766;2023-03-21T02:26:49;2.63;;;1.13;;
44272;SDS011;29964;17.182;-96.766;2023-03-21T02:31:39;0.70;;;0.50;;
44272;SDS011;29964;17.182;-96.766;2023-03-21T02:36:59;0.93;;;0.67;;
44272;SDS011;29964;17.182;-96.766;2023-03-21T02:39:31;2.20;;;1.07;;
44272;SDS011;29964;17.182;-96.766;2023-03-21T02:42:02;0.30;;;0.30;;
44272;SDS011;29964;17.182;-96.766;2023-03-21T02:45:14;1.30;;;0.70;;
44272;SDS011;29964;17.182;-96.766;2023-03-21T02:49:55;2.63;;;0.27;;
44272;SDS011;29964;17.182;-96.766;2023-03-21T02:52:24;0.73;;;0.20;;
44272;SDS011;29964;17.182;-96.766;2023-03-21T02:54:52;0.73;;;0.50;;
44272;SDS011;29964;17.182;-96.766;2023-03-21T02:57:19;0.43;;;0.40;;
44272;SDS011;29964;17.182;-96.766;2023-03-21T02:59:49;1.27;;;0.97;;
44272;SDS011;29964;17.182;-96.766;2023-03-21T03:02:19;0.20;;;0.20;;
44272;SDS011;29964;17.182;-96.766;2023-03-21T03:04:47;0.67;;;0.43;;
44272;SDS011;29964;17.182;-96.766;2023-03-21T03:07:19;1.10;;;0.80;;
44272;SDS011;29964;17.182;-96.766;2023-03-21T03:12:22;2.57;;;0.80;;
44272;SDS011;29964;17.182;-96.766;2023-03-21T03:19:57;1.57;;;0.60;;
44272;SDS011;29964;17.182;-96.766;2023-03-21T03:23:08;0.50;;;0.43;;
44272;SDS011;29964;17.182;-96.766;2023-03-21T03:25:17;0.33;;;0.33;;
44272;SDS011;29964;17.182;-96.766;2023-03-21T03:27:45;0.80;;;0.63;;
44272;SDS011;29964;17.182;-96.766;2023-03-21T03:30:12;4.03;;;0.67;;
44272;SDS011;29964;17.182;-96.766;2023-03-21T03:32:41;1.70;;;1.07;;
44272;SDS011;29964;17.182;-96.766;2023-03-21T03:35:10;1.93;;;0.60;;
44272;SDS011;29964;17.182;-96.766;2023-03-21T03:37:39;1.53;;;0.83;;
44272;SDS011;29964;17.182;-96.766;2023-03-21T03:40:07;6.83;;;1.00;;
44272;SDS011;29964;17.182;-96.766;2023-03-21T03:42:50;2.03;;;1.27;;
44272;SDS011;29964;17.182;-96.766;2023-03-21T03:45:19;2.00;;;0.77;;
44272;SDS011;29964;17.182;-96.766;2023-03-21T03:47:56;3.70;;;1.10;;
44272;SDS011;29964;17.182;-96.766;2023-03-21T03:53:07;3.23;;;1.30;;
44272;SDS011;29964;17.182;-96.766;2023-03-21T03:55:39;2.30;;;0.90;;
44272;SDS011;29964;17.182;-96.766;2023-03-21T03:58:06;2.07;;;1.17;;
44272;SDS011;29964;17.182;-96.766;2023-03-21T04:00:35;1.73;;;0.80;;
44272;SDS011;29964;17.182;-96.766;2023-03-21T04:03:02;2.20;;;0.60;;
44272;SDS011;29964;17.182;-96.766;2023-03-21T04:05:31;1.70;;;1.00;;
44272;SDS011;29964;17.182;-96.766;2023-03-21T04:07:58;2.13;;;1.23;;
44272;SDS011;29964;17.182;-96.766;2023-03-21T04:10:25;0.80;;;0.53;;
44272;SDS011;29964;17.182;-96.766;2023-03-21T04:12:51;2.87;;;1.20;;
44272;SDS011;29964;17.182;-96.766;2023-03-21T04:15:18;1.40;;;0.53;;
44272;SDS011;29964;17.182;-96.766;2023-03-21T04:17:45;1.00;;;0.63;;
44272;SDS011;29964;17.182;-96.766;2023-03-21T04:20:12;1.77;;;0.60;;
44272;SDS011;29964;17.182;-96.766;2023-03-21T04:22:39;2.73;;;1.20;;
44272;SDS011;29964;17.182;-96.766;2023-03-21T04:25:06;0.87;;;0.53;;
44272;SDS011;29964;17.182;-96.766;2023-03-21T04:27:33;1.23;;;0.67;;
44272;SDS011;29964;17.182;-96.766;2023-03-21T04:30:00;1.17;;;0.63;;
44272;SDS011;29964;17.182;-96.766;2023-03-21T04:32:27;0.83;;;0.60;;
44272;SDS011;29964;17.182;-96.766;2023-03-21T04:34:58;0.77;;;0.50;;
44272;SDS011;29964;17.182;-96.766;2023-03-21T04:37:25;1.07;;;0.40;;
44272;SDS011;29964;17.182;-96.766;2023-03-21T04:39:52;0.90;;;0.40;;
44272;SDS011;29964;17.182;-96.766;2023-03-21T04:42:19;0.70;;;0.60;;
44272;SDS011;29964;17.182;-96.766;2023-03-21T04:44:46;1.07;;;0.60;;
44272;SDS011;29964;17.182;-96.766;2023-03-21T04:47:13;6.87;;;1.07;;
44272;SDS011;29964;17.182;-96.766;2023-03-21T04:49:41;1.00;;;0.40;;
44272;SDS011;29964;17.182;-96.766;2023-03-21T04:52:07;2.37;;;0.67;;
44272;SDS011;29964;17.182;-96.766;2023-03-21T04:54:34;1.30;;;0.57;;
44272;SDS011;29964;17.182;-96.766;2023-03-21T04:57:02;1.43;;;0.90;;
44272;SDS011;29964;17.182;-96.766;2023-03-21T04:59:29;0.53;;;0.43;;
44272;SDS011;29964;17.182;-96.766;2023-03-21T05:01:56;0.97;;;0.60;;
44272;SDS011;29964;17.182;-96.766;2023-03-21T05:04:23;1.13;;;0.60;;
44272;SDS011;29964;17.182;-96.766;2023-03-21T05:06:51;1.13;;;0.67;;
44272;SDS011;29964;17.182;-96.766;2023-03-21T05:09:17;1.17;;;0.80;;
44272;SDS011;29964;17.182;-96.766;2023-03-21T05:11:44;2.37;;;0.77;;
44272;SDS011;29964;17.182;-96.766;2023-03-21T05:14:13;0.60;;;0.50;;
44272;SDS011;29964;17.182;-96.766;2023-03-21T05:16:41;1.40;;;0.83;;
44272;SDS011;29964;17.182;-96.766;2023-03-21T05:19:13;1.23;;;0.87;;
44272;SDS011;29964;17.182;-96.766;2023-03-21T05:21:41;1.93;;;0.97;;
44272;SDS011;29964;17.182;-96.766;2023-03-21T05:24:13;1.90;;;1.17;;
44272;SDS011;29964;17.182;-96.766;2023-03-21T05:26:40;0.57;;;0.37;;
44272;SDS011;29964;17.182;-96.766;2023-03-21T05:29:08;1.30;;;0.57;;
44272;SDS011;29964;17.182;-96.766;2023-03-21T05:31:36;2.13;;;0.93;;
44272;SDS011;29964;17.182;-96.766;2023-03-21T05:34:03;0.67;;;0.30;;
44272;SDS011;29964;17.182;-96.766;2023-03-21T05:36:29;2.13;;;0.97;;
44272;SDS011;29964;17.182;-96.766;2023-03-21T05:39:00;1.27;;;0.73;;
44272;SDS011;29964;17.182;-96.766;2023-03-21T05:41:27;1.27;;;0.80;;
44272;SDS011;29964;17.182;-96.766;2023-03-21T05:43:54;1.40;;;0.60;;
44272;SDS011;29964;17.182;-96.766;2023-03-21T05:46:21;1.17;;;0.70;;
44272;SDS011;29964;17.182;-96.766;2023-03-21T05:48:48;1.93;;;1.20;;
44272;SDS011;29964;17.182;-96.766;2023-03-21T05:51:15;1.47;;;1.07;;
44272;SDS011;29964;17.182;-96.766;2023-03-21T05:53:42;1.23;;;0.73;;
44272;SDS011;29964;17.182;-96.766;2023-03-21T05:56:08;1.47;;;0.97;;
44272;SDS011;29964;17.182;-96.766;2023-03-21T05:58:35;1.63;;;1.00;;
44272;SDS011;29964;17.182;-96.766;2023-03-21T06:01:02;1.33;;;0.87;;
44272;SDS011;29964;17.182;-96.766;2023-03-21T06:03:29;0.60;;;0.43;;
44272;SDS011;29964;17.182;-96.766;2023-03-21T06:05:55;1.33;;;0.70;;
44272;SDS011;29964;17.182;-96.766;2023-03-21T06:08:22;0.97;;;0.70;;
44272;SDS011;29964;17.182;-96.766;2023-03-21T06:10:49;3.43;;;1.40;;
44272;SDS011;29964;17.182;-96.766;2023-03-21T06:13:15;3.10;;;1.90;;
44272;SDS011;29964;17.182;-96.766;2023-03-21T06:15:42;1.07;;;0.70;;
44272;SDS011;29964;17.182;-96.766;2023-03-21T06:18:09;0.90;;;0.47;;
44272;SDS011;29964;17.182;-96.766;2023-03-21T06:20:35;0.90;;;0.80;;
44272;SDS011;29964;17.182;-96.766;2023-03-21T06:23:02;2.20;;;1.17;;
44272;SDS011;29964;17.182;-96.766;2023-03-21T06:25:29;1.03;;;0.80;;
44272;SDS011;29964;17.182;-96.766;2023-03-21T06:27:55;3.63;;;1.23;;
44272;SDS011;29964;17.182;-96.766;2023-03-21T06:30:22;3.30;;;1.73;;
44272;SDS011;29964;17.182;-96.766;2023-03-21T06:32:49;1.43;;;1.03;;
44272;SDS011;29964;17.182;-96.766;2023-03-21T06:35:15;1.63;;;1.00;;
44272;SDS011;29964;17.182;-96.766;2023-03-21T06:37:42;2.23;;;1.17;;
44272;SDS011;29964;17.182;-96.766;2023-03-21T06:40:10;1.13;;;0.83;;
44272;SDS011;29964;17.182;-96.766;2023-03-21T06:42:38;1.47;;;0.93;;
44272;SDS011;29964;17.182;-96.766;2023-03-21T06:45:04;1.43;;;0.83;;
44272;SDS011;29964;17.182;-96.766;2023-03-21T06:47:31;1.47;;;0.87;;
44272;SDS011;29964;17.182;-96.766;2023-03-21T06:49:58;1.20;;;0.90;;
44272;SDS011;29964;17.182;-96.766;2023-03-21T06:52:24;2.70;;;1.23;;
44272;SDS011;29964;17.182;-96.766;2023-03-21T06:54:51;0.90;;;0.70;;
44272;SDS011;29964;17.182;-96.766;2023-03-21T06:57:18;2.70;;;1.13;;
44272;SDS011;29964;17.182;-96.766;2023-03-21T06:59:46;1.73;;;1.10;;
44272;SDS011;29964;17.182;-96.766;2023-03-21T07:02:13;1.90;;;1.03;;
44272;SDS011;29964;17.182;-96.766;2023-03-21T07:04:40;1.53;;;1.03;;
44272;SDS011;29964;17.182;-96.766;2023-03-21T07:07:07;2.00;;;1.30;;
44272;SDS011;29964;17.182;-96.766;2023-03-21T07:09:33;0.60;;;0.50;;
44272;SDS011;29964;17.182;-96.766;2023-03-21T07:12:01;1.47;;;0.90;;
44272;SDS011;29964;17.182;-96.766;2023-03-21T07:14:27;0.73;;;0.63;;
44272;SDS011;29964;17.182;-96.766;2023-03-21T07:16:56;3.03;;;2.00;;
44272;SDS011;29964;17.182;-96.766;2023-03-21T07:19:23;3.80;;;1.73;;
44272;SDS011;29964;17.182;-96.766;2023-03-21T07:21:51;0.50;;;0.50;;
44272;SDS011;29964;17.182;-96.766;2023-03-21T07:24:17;2.23;;;1.07;;
44272;SDS011;29964;17.182;-96.766;2023-03-21T07:26:44;2.03;;;1.30;;
44272;SDS011;29964;17.182;-96.766;2023-03-21T07:29:11;2.03;;;1.30;;
44272;SDS011;29964;17.182;-96.766;2023-03-21T07:31:37;2.50;;;1.17;;
44272;SDS011;29964;17.182;-96.766;2023-03-21T07:34:05;0.53;;;0.50;;
44272;SDS011;29964;17.182;-96.766;2023-03-21T07:36:31;2.27;;;1.57;;
44272;SDS011;29964;17.182;-96.766;2023-03-21T07:38:58;4.10;;;2.00;;
44272;SDS011;29964;17.182;-96.766;2023-03-21T07:41:24;1.83;;;1.10;;
44272;SDS011;29964;17.182;-96.766;2023-03-21T07:43:51;2.23;;;1.50;;
44272;SDS011;29964;17.182;-96.766;2023-03-21T07:46:18;1.90;;;1.43;;
44272;SDS011;29964;17.182;-96.766;2023-03-21T07:48:45;1.60;;;1.10;;
44272;SDS011;29964;17.182;-96.766;2023-03-21T07:51:11;2.27;;;1.27;;
44272;SDS011;29964;17.182;-96.766;2023-03-21T07:53:38;1.53;;;1.13;;
44272;SDS011;29964;17.182;-96.766;2023-03-21T07:56:06;1.67;;;1.03;;
44272;SDS011;29964;17.182;-96.766;2023-03-21T07:58:33;2.57;;;1.23;;
44272;SDS011;29964;17.182;-96.766;2023-03-21T08:00:59;1.60;;;1.10;;
44272;SDS011;29964;17.182;-96.766;2023-03-21T08:03:26;4.50;;;1.20;;
44272;SDS011;29964;17.182;-96.766;2023-03-21T08:05:54;2.30;;;1.53;;
44272;SDS011;29964;17.182;-96.766;2023-03-21T08:08:20;1.17;;;0.87;;
44272;SDS011;29964;17.182;-96.766;2023-03-21T08:10:47;0.87;;;0.70;;
44272;SDS011;29964;17.182;-96.766;2023-03-21T08:13:14;1.37;;;0.93;;
44272;SDS011;29964;17.182;-96.766;2023-03-21T08:15:41;1.13;;;0.90;;
44272;SDS011;29964;17.182;-96.766;2023-03-21T08:18:08;1.30;;;1.00;;
44272;SDS011;29964;17.182;-96.766;2023-03-21T08:20:35;1.37;;;1.13;;
44272;SDS011;29964;17.182;-96.766;2023-03-21T08:23:02;3.67;;;1.17;;
44272;SDS011;29964;17.182;-96.766;2023-03-21T08:25:29;1.37;;;1.07;;
44272;SDS011;29964;17.182;-96.766;2023-03-21T08:27:55;2.43;;;1.50;;
44272;SDS011;29964;17.182;-96.766;2023-03-21T08:30:23;2.80;;;1.63;;
44272;SDS011;29964;17.182;-96.766;2023-03-21T08:32:54;2.73;;;1.27;;
44272;SDS011;29964;17.182;-96.766;2023-03-21T08:35:21;1.03;;;0.80;;
44272;SDS011;29964;17.182;-96.766;2023-03-21T08:37:48;2.23;;;1.20;;
44272;SDS011;29964;17.182;-96.766;2023-03-21T08:40:16;1.90;;;1.27;;
44272;SDS011;29964;17.182;-96.766;2023-03-21T08:42:43;1.87;;;1.30;;
44272;SDS011;29964;17.182;-96.766;2023-03-21T08:45:11;1.40;;;0.93;;
44272;SDS011;29964;17.182;-96.766;2023-03-21T08:47:38;0.93;;;0.80;;
44272;SDS011;29964;17.182;-96.766;2023-03-21T08:50:05;2.90;;;1.47;;
44272;SDS011;29964;17.182;-96.766;2023-03-21T08:52:32;1.07;;;0.87;;
44272;SDS011;29964;17.182;-96.766;2023-03-21T08:54:59;1.90;;;1.17;;
44272;SDS011;29964;17.182;-96.766;2023-03-21T08:57:27;2.73;;;1.30;;
44272;SDS011;29964;17.182;-96.766;2023-03-21T08:59:53;6.17;;;1.33;;
44272;SDS011;29964;17.182;-96.766;2023-03-21T09:02:20;2.43;;;1.30;;
44272;SDS011;29964;17.182;-96.766;2023-03-21T09:04:47;2.13;;;1.43;;
44272;SDS011;29964;17.182;-96.766;2023-03-21T09:07:14;2.53;;;1.57;;
44272;SDS011;29964;17.182;-96.766;2023-03-21T09:09:42;3.27;;;1.77;;
44272;SDS011;29964;17.182;-96.766;2023-03-21T09:12:09;3.00;;;1.70;;
44272;SDS011;29964;17.182;-96.766;2023-03-21T09:14:35;4.30;;;0.97;;
44272;SDS011;29964;17.182;-96.766;2023-03-21T09:17:02;7.03;;;1.60;;
44272;SDS011;29964;17.182;-96.766;2023-03-21T09:19:29;1.13;;;0.80;;
44272;SDS011;29964;17.182;-96.766;2023-03-21T09:21:56;5.17;;;1.70;;
44272;SDS011;29964;17.182;-96.766;2023-03-21T09:24:22;2.33;;;1.27;;
44272;SDS011;29964;17.182;-96.766;2023-03-21T09:26:50;1.30;;;0.63;;
44272;SDS011;29964;17.182;-96.766;2023-03-21T09:29:17;3.43;;;1.87;;
44272;SDS011;29964;17.182;-96.766;2023-03-21T09:31:54;1.23;;;0.83;;
44272;SDS011;29964;17.182;-96.766;2023-03-21T09:34:21;1.27;;;0.83;;
44272;SDS011;29964;17.182;-96.766;2023-03-21T09:36:48;2.10;;;0.93;;
44272;SDS011;29964;17.182;-96.766;2023-03-21T09:39:16;2.77;;;1.40;;
44272;SDS011;29964;17.182;-96.766;2023-03-21T09:49:31;1.47;;;1.10;;
44272;SDS011;29964;17.182;-96.766;2023-03-21T09:52:00;1.87;;;1.23;;
44272;SDS011;29964;17.182;-96.766;2023-03-21T09:54:37;1.73;;;1.20;;
44272;SDS011;29964;17.182;-96.766;2023-03-21T09:57:28;1.23;;;1.13;;
44272;SDS011;29964;17.182;-96.766;2023-03-21T09:59:51;1.43;;;1.03;;
44272;SDS011;29964;17.182;-96.766;2023-03-21T10:04:58;1.80;;;1.40;;
44272;SDS011;29964;17.182;-96.766;2023-03-21T10:07:25;2.67;;;1.17;;
44272;SDS011;29964;17.182;-96.766;2023-03-21T10:09:55;2.87;;;1.77;;
44272;SDS011;29964;17.182;-96.766;2023-03-21T10:12:23;1.67;;;1.10;;
44272;SDS011;29964;17.182;-96.766;2023-03-21T10:14:55;1.67;;;1.20;;
44272;SDS011;29964;17.182;-96.766;2023-03-21T10:17:28;0.83;;;0.70;;
44272;SDS011;29964;17.182;-96.766;2023-03-21T10:22:35;2.40;;;1.63;;
44272;SDS011;29964;17.182;-96.766;2023-03-21T10:25:02;1.57;;;1.10;;
44272;SDS011;29964;17.182;-96.766;2023-03-21T10:27:29;2.87;;;1.70;;
44272;SDS011;29964;17.182;-96.766;2023-03-21T10:29:56;2.13;;;1.73;;
44272;SDS011;29964;17.182;-96.766;2023-03-21T10:32:25;2.30;;;1.40;;
44272;SDS011;29964;17.182;-96.766;2023-03-21T10:34:53;1.80;;;1.07;;
44272;SDS011;29964;17.182;-96.766;2023-03-21T10:37:21;1.77;;;1.50;;
44272;SDS011;29964;17.182;-96.766;2023-03-21T10:39:49;2.63;;;1.50;;
44272;SDS011;29964;17.182;-96.766;2023-03-21T10:42:26;2.47;;;1.30;;
44272;SDS011;29964;17.182;-96.766;2023-03-21T10:44:57;2.23;;;1.57;;
44272;SDS011;29964;17.182;-96.766;2023-03-21T10:47:28;2.53;;;1.87;;
44272;SDS011;29964;17.182;-96.766;2023-03-21T10:50:00;3.37;;;1.70;;
44272;SDS011;29964;17.182;-96.766;2023-03-21T10:52:27;2.57;;;1.70;;
44272;SDS011;29964;17.182;-96.766;2023-03-21T10:57:41;2.20;;;1.67;;
44272;SDS011;29964;17.182;-96.766;2023-03-21T11:00:09;2.07;;;1.37;;
44272;SDS011;29964;17.182;-96.766;2023-03-21T11:02:42;1.00;;;0.90;;
44272;SDS011;29964;17.182;-96.766;2023-03-21T11:07:42;2.83;;;1.60;;
44272;SDS011;29964;17.182;-96.766;2023-03-21T11:10:25;2.27;;;1.37;;
44272;SDS011;29964;17.182;-96.766;2023-03-21T11:12:54;2.80;;;1.53;;
44272;SDS011;29964;17.182;-96.766;2023-03-21T11:17:51;6.03;;;1.17;;
44272;SDS011;29964;17.182;-96.766;2023-03-21T11:20:18;12.97;;;9.20;;
44272;SDS011;29964;17.182;-96.766;2023-03-21T11:22:46;8.27;;;3.80;;
44272;SDS011;29964;17.182;-96.766;2023-03-21T11:27:58;2.83;;;1.83;;
44272;SDS011;29964;17.182;-96.766;2023-03-21T11:30:31;2.27;;;1.83;;
44272;SDS011;29964;17.182;-96.766;2023-03-21T11:33:00;2.10;;;1.37;;
44272;SDS011;29964;17.182;-96.766;2023-03-21T11:35:35;2.40;;;1.70;;
44272;SDS011;29964;17.182;-96.766;2023-03-21T11:38:02;1.57;;;1.03;;
44272;SDS011;29964;17.182;-96.766;2023-03-21T11:40:33;5.07;;;3.70;;
44272;SDS011;29964;17.182;-96.766;2023-03-21T11:43:05;4.43;;;2.00;;
44272;SDS011;29964;17.182;-96.766;2023-03-21T11:45:56;4.73;;;2.70;;
44272;SDS011;29964;17.182;-96.766;2023-03-21T11:48:23;2.77;;;2.00;;
44272;SDS011;29964;17.182;-96.766;2023-03-21T11:50:51;2.57;;;1.57;;
44272;SDS011;29964;17.182;-96.766;2023-03-21T11:58:42;2.38;;;1.75;;
44272;SDS011;29964;17.182;-96.766;2023-03-21T12:01:14;3.27;;;2.17;;
44272;SDS011;29964;17.182;-96.766;2023-03-21T12:03:54;3.03;;;1.80;;
44272;SDS011;29964;17.182;-96.766;2023-03-21T12:06:29;2.50;;;1.43;;
44272;SDS011;29964;17.182;-96.766;2023-03-21T12:09:04;2.47;;;1.33;;
44272;SDS011;29964;17.182;-96.766;2023-03-21T12:14:04;1.87;;;1.33;;
44272;SDS011;29964;17.182;-96.766;2023-03-21T12:22:02;1.13;;;0.93;;
44272;SDS011;29964;17.182;-96.766;2023-03-21T12:24:32;2.45;;;2.05;;
44272;SDS011;29964;17.182;-96.766;2023-03-21T12:27:07;3.63;;;1.93;;
44272;SDS011;29964;17.182;-96.766;2023-03-21T12:32:24;3.37;;;1.97;;
44272;SDS011;29964;17.182;-96.766;2023-03-21T12:40:54;2.63;;;1.80;;
44272;SDS011;29964;17.182;-96.766;2023-03-21T12:43:26;3.20;;;1.90;;
44272;SDS011;29964;17.182;-96.766;2023-03-21T12:45:54;4.00;;;2.27;;
44272;SDS011;29964;17.182;-96.766;2023-03-21T12:48:31;3.47;;;2.20;;
44272;SDS011;29964;17.182;-96.766;2023-03-21T12:50:59;3.13;;;1.80;;
44272;SDS011;29964;17.182;-96.766;2023-03-21T12:53:34;3.30;;;2.13;;
44272;SDS011;29964;17.182;-96.766;2023-03-21T12:56:08;2.97;;;1.80;;
44272;SDS011;29964;17.182;-96.766;2023-03-21T12:58:42;1.90;;;1.37;;
44272;SDS011;29964;17.182;-96.766;2023-03-21T13:01:11;4.57;;;2.47;;
44272;SDS011;29964;17.182;-96.766;2023-03-21T13:03:40;2.10;;;1.30;;
44272;SDS011;29964;17.182;-96.766;2023-03-21T13:06:17;4.87;;;2.47;;
44272;SDS011;29964;17.182;-96.766;2023-03-21T13:08:48;3.33;;;1.77;;
44272;SDS011;29964;17.182;-96.766;2023-03-21T13:11:18;3.83;;;2.33;;
44272;SDS011;29964;17.182;-96.766;2023-03-21T13:13:46;4.10;;;2.20;;
44272;SDS011;29964;17.182;-96.766;2023-03-21T13:16:20;9.90;;;1.50;;
44272;SDS011;29964;17.182;-96.766;2023-03-21T13:21:20;5.23;;;3.13;;
44272;SDS011;29964;17.182;-96.766;2023-03-21T13:26:47;7.40;;;3.10;;
44272;SDS011;29964;17.182;-96.766;2023-03-21T13:29:22;4.97;;;3.00;;
44272;SDS011;29964;17.182;-96.766;2023-03-21T13:31:50;3.35;;;2.33;;
44272;SDS011;29964;17.182;-96.766;2023-03-21T13:34:20;2.93;;;2.03;;
44272;SDS011;29964;17.182;-96.766;2023-03-21T13:36:48;5.80;;;2.43;;
44272;SDS011;29964;17.182;-96.766;2023-03-21T13:39:18;3.47;;;2.33;;
44272;SDS011;29964;17.182;-96.766;2023-03-21T13:41:46;4.13;;;2.43;;
44272;SDS011;29964;17.182;-96.766;2023-03-21T13:47:03;16.70;;;2.67;;
44272;SDS011;29964;17.182;-96.766;2023-03-21T13:49:33;2.90;;;2.17;;
44272;SDS011;29964;17.182;-96.766;2023-03-21T13:52:02;4.07;;;2.07;;
44272;SDS011;29964;17.182;-96.766;2023-03-21T13:57:46;2.97;;;1.33;;
44272;SDS011;29964;17.182;-96.766;2023-03-21T14:00:14;3.77;;;2.33;;
44272;SDS011;29964;17.182;-96.766;2023-03-21T14:02:58;7.37;;;2.13;;
44272;SDS011;29964;17.182;-96.766;2023-03-21T14:05:26;3.70;;;2.17;;
44272;SDS011;29964;17.182;-96.766;2023-03-21T14:07:57;7.80;;;2.37;;
44272;SDS011;29964;17.182;-96.766;2023-03-21T14:10:44;1.53;;;1.00;;
44272;SDS011;29964;17.182;-96.766;2023-03-21T14:13:18;4.50;;;1.87;;
44272;SDS011;29964;17.182;-96.766;2023-03-21T14:15:46;2.87;;;1.70;;
44272;SDS011;29964;17.182;-96.766;2023-03-21T14:18:15;2.33;;;1.60;;
44272;SDS011;29964;17.182;-96.766;2023-03-21T14:20:42;2.83;;;1.50;;
44272;SDS011;29964;17.182;-96.766;2023-03-21T14:23:15;2.03;;;1.47;;
44272;SDS011;29964;17.182;-96.766;2023-03-21T14:25:41;2.57;;;1.60;;
44272;SDS011;29964;17.182;-96.766;2023-03-21T14:28:21;2.00;;;1.50;;
44272;SDS011;29964;17.182;-96.766;2023-03-21T14:30:50;11.00;;;2.20;;
44272;SDS011;29964;17.182;-96.766;2023-03-21T14:33:24;15.13;;;1.93;;
44272;SDS011;29964;17.182;-96.766;2023-03-21T14:35:54;3.30;;;2.33;;
44272;SDS011;29964;17.182;-96.766;2023-03-21T14:38:23;2.87;;;1.80;;
44272;SDS011;29964;17.182;-96.766;2023-03-21T14:40:52;3.00;;;1.73;;
44272;SDS011;29964;17.182;-96.766;2023-03-21T14:43:20;8.13;;;2.10;;
44272;SDS011;29964;17.182;-96.766;2023-03-21T14:45:51;3.80;;;2.20;;
44272;SDS011;29964;17.182;-96.766;2023-03-21T14:48:19;4.03;;;2.47;;
44272;SDS011;29964;17.182;-96.766;2023-03-21T14:50:47;3.97;;;1.93;;
44272;SDS011;29964;17.182;-96.766;2023-03-21T14:53:15;5.13;;;2.47;;
44272;SDS011;29964;17.182;-96.766;2023-03-21T14:55:45;3.47;;;2.23;;
44272;SDS011;29964;17.182;-96.766;2023-03-21T14:58:12;3.77;;;2.43;;
44272;SDS011;29964;17.182;-96.766;2023-03-21T15:00:41;6.03;;;3.87;;
44272;SDS011;29964;17.182;-96.766;2023-03-21T15:03:09;3.93;;;1.93;;
44272;SDS011;29964;17.182;-96.766;2023-03-21T15:05:37;3.57;;;2.20;;
44272;SDS011;29964;17.182;-96.766;2023-03-21T15:08:08;6.80;;;2.50;;
44272;SDS011;29964;17.182;-96.766;2023-03-21T15:10:39;4.07;;;2.53;;
44272;SDS011;29964;17.182;-96.766;2023-03-21T15:15:38;5.53;;;3.17;;
44272;SDS011;29964;17.182;-96.766;2023-03-21T15:18:06;4.17;;;2.27;;
44272;SDS011;29964;17.182;-96.766;2023-03-21T15:20:35;7.57;;;3.73;;
44272;SDS011;29964;17.182;-96.766;2023-03-21T15:23:05;8.27;;;3.07;;
44272;SDS011;29964;17.182;-96.766;2023-03-21T15:25:35;3.57;;;2.20;;
44272;SDS011;29964;17.182;-96.766;2023-03-21T15:28:03;2.77;;;1.97;;
44272;SDS011;29964;17.182;-96.766;2023-03-21T15:30:30;3.57;;;2.07;;
44272;SDS011;29964;17.182;-96.766;2023-03-21T15:33:04;6.43;;;2.13;;
44272;SDS011;29964;17.182;-96.766;2023-03-21T15:35:38;1.97;;;1.33;;
44272;SDS011;29964;17.182;-96.766;2023-03-21T15:38:05;2.55;;;1.60;;
44272;SDS011;29964;17.182;-96.766;2023-03-21T15:40:32;1.77;;;1.23;;
44272;SDS011;29964;17.182;-96.766;2023-03-21T15:43:18;3.63;;;1.97;;
44272;SDS011;29964;17.182;-96.766;2023-03-21T15:45:46;5.03;;;1.93;;
44272;SDS011;29964;17.182;-96.766;2023-03-21T15:48:13;7.97;;;2.33;;
44272;SDS011;29964;17.182;-96.766;2023-03-21T15:50:41;3.07;;;1.30;;
44272;SDS011;29964;17.182;-96.766;2023-03-21T15:53:15;2.70;;;1.77;;
44272;SDS011;29964;17.182;-96.766;2023-03-21T15:55:43;1.80;;;1.23;;
44272;SDS011;29964;17.182;-96.766;2023-03-21T15:58:20;2.43;;;1.43;;